sensor_id;sensor_type;location;lat;lon;timestamp;temperature;humidity
70214;DHT22;60138;55.808;37.078;2024-01-16T00:01:44;-0.31;86.16
70214;DHT22;60138;55.808;37.078;2024-01-16T00:04:11;-0.31;86.16
70214;DHT22;60138;55.808;37.078;2024-01-16T00:06:43;-0.30;86.16
70214;DHT22;60138;55.808;37.078;2024-01-16T00:09:09;-0.30;86.19
70214;DHT22;60138;55.808;37.078;2024-01-16T00:11:40;-0.30;86.19
70214;DHT22;60138;55.808;37.078;2024-01-16T00:14:06;-0.29;86.22
70214;DHT22;60138;55.808;37.078;2024-01-16T00:16:31;-0.28;86.21
70214;DHT22;60138;55.808;37.078;2024-01-16T00:18:57;-0.27;86.23
70214;DHT22;60138;55.808;37.078;2024-01-16T00:21:23;-0.26;86.25
70214;DHT22;60138;55.808;37.078;2024-01-16T00:23:49;-0.26;86.27
70214;DHT22;60138;55.808;37.078;2024-01-16T00:26:22;-0.26;86.28
70214;DHT22;60138;55.808;37.078;2024-01-16T00:28:48;-0.26;86.27
70214;DHT22;60138;55.808;37.078;2024-01-16T00:31:14;-0.25;86.28
70214;DHT22;60138;55.808;37.078;2024-01-16T00:33:40;-0.25;86.28
70214;DHT22;60138;55.808;37.078;2024-01-16T00:36:06;-0.27;86.29
70214;DHT22;60138;55.808;37.078;2024-01-16T00:38:35;-0.29;86.31
70214;DHT22;60138;55.808;37.078;2024-01-16T00:41:01;-0.32;86.26
70214;DHT22;60138;55.808;37.078;2024-01-16T00:43:27;-0.36;86.26
70214;DHT22;60138;55.808;37.078;2024-01-16T00:45:53;-0.36;86.28
70214;DHT22;60138;55.808;37.078;2024-01-16T00:48:19;-0.36;86.29
70214;DHT22;60138;55.808;37.078;2024-01-16T00:50:45;-0.34;86.29
70214;DHT22;60138;55.808;37.078;2024-01-16T00:53:11;-0.31;86.31
70214;DHT22;60138;55.808;37.078;2024-01-16T00:55:36;-0.29;86.31
70214;DHT22;60138;55.808;37.078;2024-01-16T00:58:02;-0.27;86.30
70214;DHT22;60138;55.808;37.078;2024-01-16T01:00:28;-0.26;86.29
70214;DHT22;60138;55.808;37.078;2024-01-16T01:02:54;-0.27;86.32
70214;DHT22;60138;55.808;37.078;2024-01-16T01:05:20;-0.27;86.34
70214;DHT22;60138;55.808;37.078;2024-01-16T01:07:45;-0.27;86.34
70214;DHT22;60138;55.808;37.078;2024-01-16T01:10:11;-0.28;86.35
70214;DHT22;60138;55.808;37.078;2024-01-16T01:12:37;-0.27;86.34
70214;DHT22;60138;55.808;37.078;2024-01-16T01:15:03;-0.28;86.36
70214;DHT22;60138;55.808;37.078;2024-01-16T01:17:30;-0.29;86.38
70214;DHT22;60138;55.808;37.078;2024-01-16T01:19:56;-0.30;86.42
70214;DHT22;60138;55.808;37.078;2024-01-16T01:22:22;-0.29;86.44
70214;DHT22;60138;55.808;37.078;2024-01-16T01:24:48;-0.27;86.44
70214;DHT22;60138;55.808;37.078;2024-01-16T01:27:13;-0.27;86.45
70214;DHT22;60138;55.808;37.078;2024-01-16T01:29:39;-0.28;86.44
70214;DHT22;60138;55.808;37.078;2024-01-16T01:32:05;-0.27;86.42
70214;DHT22;60138;55.808;37.078;2024-01-16T01:34:31;-0.27;86.44
70214;DHT22;60138;55.808;37.078;2024-01-16T01:36:57;-0.27;86.45
70214;DHT22;60138;55.808;37.078;2024-01-16T01:39:22;-0.27;86.44
70214;DHT22;60138;55.808;37.078;2024-01-16T01:41:48;-0.27;86.48
70214;DHT22;60138;55.808;37.078;2024-01-16T01:44:14;-0.26;86.50
70214;DHT22;60138;55.808;37.078;2024-01-16T01:46:40;-0.25;86.50
70214;DHT22;60138;55.808;37.078;2024-01-16T01:49:06;-0.23;86.48
70214;DHT22;60138;55.808;37.078;2024-01-16T01:51:33;-0.23;86.51
70214;DHT22;60138;55.808;37.078;2024-01-16T01:54:00;-0.24;86.51
70214;DHT22;60138;55.808;37.078;2024-01-16T01:56:27;-0.24;86.53
70214;DHT22;60138;55.808;37.078;2024-01-16T01:58:54;-0.24;86.51
70214;DHT22;60138;55.808;37.078;2024-01-16T02:01:22;-0.24;86.51
70214;DHT22;60138;55.808;37.078;2024-01-16T02:03:49;-0.23;86.52
70214;DHT22;60138;55.808;37.078;2024-01-16T02:06:15;-0.23;86.55
70214;DHT22;60138;55.808;37.078;2024-01-16T02:08:41;-0.24;86.52
70214;DHT22;60138;55.808;37.078;2024-01-16T02:11:07;-0.22;86.57
70214;DHT22;60138;55.808;37.078;2024-01-16T02:13:33;-0.22;86.60
70214;DHT22;60138;55.808;37.078;2024-01-16T02:16:00;-0.16;86.84
70214;DHT22;60138;55.808;37.078;2024-01-16T02:18:26;-0.12;86.96
70214;DHT22;60138;55.808;37.078;2024-01-16T02:20:52;-0.07;87.06
70214;DHT22;60138;55.808;37.078;2024-01-16T02:23:29;-0.07;87.12
70214;DHT22;60138;55.808;37.078;2024-01-16T02:25:56;-0.06;87.19
70214;DHT22;60138;55.808;37.078;2024-01-16T02:28:22;-0.05;87.19
70214;DHT22;60138;55.808;37.078;2024-01-16T02:30:48;-0.05;87.25
70214;DHT22;60138;55.808;37.078;2024-01-16T02:33:14;-0.03;87.28
70214;DHT22;60138;55.808;37.078;2024-01-16T02:35:40;-0.05;87.29
70214;DHT22;60138;55.808;37.078;2024-01-16T02:38:05;-0.05;87.37
70214;DHT22;60138;55.808;37.078;2024-01-16T02:40:31;-0.05;87.34
70214;DHT22;60138;55.808;37.078;2024-01-16T02:42:57;-0.05;87.35
70214;DHT22;60138;55.808;37.078;2024-01-16T02:45:23;-0.03;87.37
70214;DHT22;60138;55.808;37.078;2024-01-16T02:47:49;-0.05;87.41
70214;DHT22;60138;55.808;37.078;2024-01-16T02:50:15;-0.02;87.44
70214;DHT22;60138;55.808;37.078;2024-01-16T02:52:41;-0.02;87.41
70214;DHT22;60138;55.808;37.078;2024-01-16T02:55:07;-0.02;87.44
70214;DHT22;60138;55.808;37.078;2024-01-16T02:57:33;-0.03;87.44
70214;DHT22;60138;55.808;37.078;2024-01-16T02:59:58;-0.03;87.41
70214;DHT22;60138;55.808;37.078;2024-01-16T03:02:24;-0.02;87.42
70214;DHT22;60138;55.808;37.078;2024-01-16T03:04:50;-0.05;87.44
70214;DHT22;60138;55.808;37.078;2024-01-16T03:07:16;-0.07;87.44
70214;DHT22;60138;55.808;37.078;2024-01-16T03:09:42;-0.06;87.44
70214;DHT22;60138;55.808;37.078;2024-01-16T03:12:08;-0.06;87.47
70214;DHT22;60138;55.808;37.078;2024-01-16T03:14:34;-0.07;87.47
70214;DHT22;60138;55.808;37.078;2024-01-16T03:17:03;-0.08;87.49
70214;DHT22;60138;55.808;37.078;2024-01-16T03:19:29;-0.08;87.46
70214;DHT22;60138;55.808;37.078;2024-01-16T03:21:55;-0.08;87.49
70214;DHT22;60138;55.808;37.078;2024-01-16T03:24:21;-0.08;87.48
70214;DHT22;60138;55.808;37.078;2024-01-16T03:26:47;-0.08;87.48
70214;DHT22;60138;55.808;37.078;2024-01-16T03:29:13;-0.07;87.46
70214;DHT22;60138;55.808;37.078;2024-01-16T03:31:38;-0.06;87.46
70214;DHT22;60138;55.808;37.078;2024-01-16T03:34:04;-0.06;87.44
70214;DHT22;60138;55.808;37.078;2024-01-16T03:36:30;-0.06;87.44
70214;DHT22;60138;55.808;37.078;2024-01-16T03:38:56;-0.07;87.41
70214;DHT22;60138;55.808;37.078;2024-01-16T03:41:22;-0.07;87.40
70214;DHT22;60138;55.808;37.078;2024-01-16T03:43:48;-0.05;87.40
70214;DHT22;60138;55.808;37.078;2024-01-16T03:46:13;-0.03;87.41
70214;DHT22;60138;55.808;37.078;2024-01-16T03:48:39;-0.06;87.41
70214;DHT22;60138;55.808;37.078;2024-01-16T03:51:05;-0.06;87.40
70214;DHT22;60138;55.808;37.078;2024-01-16T03:53:31;-0.05;87.38
70214;DHT22;60138;55.808;37.078;2024-01-16T03:55:57;-0.08;87.38
70214;DHT22;60138;55.808;37.078;2024-01-16T03:58:23;-0.07;87.39
70214;DHT22;60138;55.808;37.078;2024-01-16T04:00:48;-0.08;87.36
70214;DHT22;60138;55.808;37.078;2024-01-16T04:03:14;-0.11;87.37
70214;DHT22;60138;55.808;37.078;2024-01-16T04:05:40;-0.12;87.35
70214;DHT22;60138;55.808;37.078;2024-01-16T04:08:06;-0.14;87.36
70214;DHT22;60138;55.808;37.078;2024-01-16T04:10:31;-0.15;87.34
70214;DHT22;60138;55.808;37.078;2024-01-16T04:13:00;-0.15;87.34
70214;DHT22;60138;55.808;37.078;2024-01-16T04:15:26;-0.17;87.35
70214;DHT22;60138;55.808;37.078;2024-01-16T04:17:52;-0.15;87.32
70214;DHT22;60138;55.808;37.078;2024-01-16T04:20:18;-0.14;87.35
70214;DHT22;60138;55.808;37.078;2024-01-16T04:22:45;-0.12;87.31
70214;DHT22;60138;55.808;37.078;2024-01-16T04:25:11;-0.11;87.32
70214;DHT22;60138;55.808;37.078;2024-01-16T04:27:37;-0.10;87.31
70214;DHT22;60138;55.808;37.078;2024-01-16T04:30:03;-0.11;87.31
70214;DHT22;60138;55.808;37.078;2024-01-16T04:32:30;-0.10;87.30
70214;DHT22;60138;55.808;37.078;2024-01-16T04:34:56;-0.11;87.31
70214;DHT22;60138;55.808;37.078;2024-01-16T04:37:22;-0.10;87.35
70214;DHT22;60138;55.808;37.078;2024-01-16T04:39:48;-0.11;87.37
70214;DHT22;60138;55.808;37.078;2024-01-16T04:42:14;-0.11;87.37
70214;DHT22;60138;55.808;37.078;2024-01-16T04:44:41;-0.12;87.34
70214;DHT22;60138;55.808;37.078;2024-01-16T04:47:07;-0.14;87.37
70214;DHT22;60138;55.808;37.078;2024-01-16T04:49:32;-0.13;87.33
70214;DHT22;60138;55.808;37.078;2024-01-16T04:51:58;-0.15;87.32
70214;DHT22;60138;55.808;37.078;2024-01-16T04:54:24;-0.19;87.32
70214;DHT22;60138;55.808;37.078;2024-01-16T04:56:50;-0.19;87.32
70214;DHT22;60138;55.808;37.078;2024-01-16T04:59:16;-0.20;87.32
70214;DHT22;60138;55.808;37.078;2024-01-16T05:01:42;-0.20;87.32
70214;DHT22;60138;55.808;37.078;2024-01-16T05:04:07;-0.22;87.32
70214;DHT22;60138;55.808;37.078;2024-01-16T05:06:34;-0.20;87.32
70214;DHT22;60138;55.808;37.078;2024-01-16T05:09:00;-0.19;87.32
70214;DHT22;60138;55.808;37.078;2024-01-16T05:11:26;-0.20;87.30
70214;DHT22;60138;55.808;37.078;2024-01-16T05:13:52;-0.17;87.31
70214;DHT22;60138;55.808;37.078;2024-01-16T05:16:20;-0.20;87.28
70214;DHT22;60138;55.808;37.078;2024-01-16T05:18:45;-0.20;87.31
70214;DHT22;60138;55.808;37.078;2024-01-16T05:21:11;-0.21;87.28
70214;DHT22;60138;55.808;37.078;2024-01-16T05:23:37;-0.22;87.27
70214;DHT22;60138;55.808;37.078;2024-01-16T05:26:03;-0.23;87.28
70214;DHT22;60138;55.808;37.078;2024-01-16T05:28:29;-0.24;87.24
70214;DHT22;60138;55.808;37.078;2024-01-16T05:30:55;-0.26;87.25
70214;DHT22;60138;55.808;37.078;2024-01-16T05:33:21;-0.27;87.23
70214;DHT22;60138;55.808;37.078;2024-01-16T05:35:46;-0.26;87.23
70214;DHT22;60138;55.808;37.078;2024-01-16T05:38:12;-0.26;87.22
70214;DHT22;60138;55.808;37.078;2024-01-16T05:40:38;-0.26;87.22
70214;DHT22;60138;55.808;37.078;2024-01-16T05:43:04;-0.25;87.19
70214;DHT22;60138;55.808;37.078;2024-01-16T05:45:30;-0.25;87.19
70214;DHT22;60138;55.808;37.078;2024-01-16T05:47:56;-0.23;87.19
70214;DHT22;60138;55.808;37.078;2024-01-16T05:50:22;-0.21;87.18
70214;DHT22;60138;55.808;37.078;2024-01-16T05:52:47;-0.19;87.19
70214;DHT22;60138;55.808;37.078;2024-01-16T05:55:13;-0.20;87.18
70214;DHT22;60138;55.808;37.078;2024-01-16T05:57:39;-0.19;87.21
70214;DHT22;60138;55.808;37.078;2024-01-16T06:00:05;-0.20;87.22
70214;DHT22;60138;55.808;37.078;2024-01-16T06:02:33;-0.21;87.22
70214;DHT22;60138;55.808;37.078;2024-01-16T06:05:02;-0.21;87.20
70214;DHT22;60138;55.808;37.078;2024-01-16T06:07:30;-0.21;87.21
70214;DHT22;60138;55.808;37.078;2024-01-16T06:09:56;-0.20;87.20
70214;DHT22;60138;55.808;37.078;2024-01-16T06:12:21;-0.21;87.19
70214;DHT22;60138;55.808;37.078;2024-01-16T06:14:47;-0.20;87.20
70214;DHT22;60138;55.808;37.078;2024-01-16T06:17:13;-0.21;87.19
70214;DHT22;60138;55.808;37.078;2024-01-16T06:19:39;-0.21;87.22
70214;DHT22;60138;55.808;37.078;2024-01-16T06:22:05;-0.20;87.20
70214;DHT22;60138;55.808;37.078;2024-01-16T06:24:31;-0.19;87.20
70214;DHT22;60138;55.808;37.078;2024-01-16T06:26:57;-0.17;87.19
70214;DHT22;60138;55.808;37.078;2024-01-16T06:29:23;-0.17;87.18
70214;DHT22;60138;55.808;37.078;2024-01-16T06:31:48;-0.16;87.18
70214;DHT22;60138;55.808;37.078;2024-01-16T06:34:14;-0.20;87.15
70214;DHT22;60138;55.808;37.078;2024-01-16T06:36:40;-0.19;87.15
70214;DHT22;60138;55.808;37.078;2024-01-16T06:39:06;-0.19;87.16
70214;DHT22;60138;55.808;37.078;2024-01-16T06:41:32;-0.20;87.18
70214;DHT22;60138;55.808;37.078;2024-01-16T06:43:57;-0.19;87.16
70214;DHT22;60138;55.808;37.078;2024-01-16T06:46:23;-0.16;87.15
70214;DHT22;60138;55.808;37.078;2024-01-16T06:48:49;-0.17;87.14
70214;DHT22;60138;55.808;37.078;2024-01-16T06:51:15;-0.15;87.12
70214;DHT22;60138;55.808;37.078;2024-01-16T06:53:41;-0.14;87.12
70214;DHT22;60138;55.808;37.078;2024-01-16T06:56:07;-0.14;87.12
70214;DHT22;60138;55.808;37.078;2024-01-16T06:58:33;-0.13;87.12
70214;DHT22;60138;55.808;37.078;2024-01-16T07:00:59;-0.13;87.13
70214;DHT22;60138;55.808;37.078;2024-01-16T07:03:24;-0.14;87.13
70214;DHT22;60138;55.808;37.078;2024-01-16T07:05:50;-0.10;87.12
70214;DHT22;60138;55.808;37.078;2024-01-16T07:08:16;-0.09;87.12
70214;DHT22;60138;55.808;37.078;2024-01-16T07:10:42;-0.07;87.11
70214;DHT22;60138;55.808;37.078;2024-01-16T07:13:08;-0.07;87.09
70214;DHT22;60138;55.808;37.078;2024-01-16T07:15:34;-0.05;87.09
70214;DHT22;60138;55.808;37.078;2024-01-16T07:17:59;-0.05;87.10
70214;DHT22;60138;55.808;37.078;2024-01-16T07:20:25;-0.05;87.09
70214;DHT22;60138;55.808;37.078;2024-01-16T07:22:51;-0.02;87.09
70214;DHT22;60138;55.808;37.078;2024-01-16T07:25:17;0.01;87.09
70214;DHT22;60138;55.808;37.078;2024-01-16T07:27:44;0.03;87.11
70214;DHT22;60138;55.808;37.078;2024-01-16T07:30:10;0.06;87.08
70214;DHT22;60138;55.808;37.078;2024-01-16T07:32:36;0.07;87.09
70214;DHT22;60138;55.808;37.078;2024-01-16T07:35:02;0.08;87.09
70214;DHT22;60138;55.808;37.078;2024-01-16T07:37:29;0.08;87.09
70214;DHT22;60138;55.808;37.078;2024-01-16T07:39:55;0.07;87.09
70214;DHT22;60138;55.808;37.078;2024-01-16T07:42:21;0.06;87.10
70214;DHT22;60138;55.808;37.078;2024-01-16T07:44:47;0.04;87.12
70214;DHT22;60138;55.808;37.078;2024-01-16T07:47:13;0.02;87.14
70214;DHT22;60138;55.808;37.078;2024-01-16T07:49:38;-0.00;87.15
70214;DHT22;60138;55.808;37.078;2024-01-16T07:52:04;-0.00;87.11
70214;DHT22;60138;55.808;37.078;2024-01-16T07:54:30;-0.02;87.12
70214;DHT22;60138;55.808;37.078;2024-01-16T07:56:56;-0.05;87.12
70214;DHT22;60138;55.808;37.078;2024-01-16T07:59:22;-0.08;87.11
70214;DHT22;60138;55.808;37.078;2024-01-16T08:01:49;-0.16;87.03
70214;DHT22;60138;55.808;37.078;2024-01-16T08:04:15;-0.26;86.98
70214;DHT22;60138;55.808;37.078;2024-01-16T08:06:42;-0.36;86.91
70214;DHT22;60138;55.808;37.078;2024-01-16T08:09:08;-0.43;86.84
70214;DHT22;60138;55.808;37.078;2024-01-16T08:11:33;-0.45;86.80
70214;DHT22;60138;55.808;37.078;2024-01-16T08:13:59;-0.46;86.77
70214;DHT22;60138;55.808;37.078;2024-01-16T08:16:25;-0.42;86.76
70214;DHT22;60138;55.808;37.078;2024-01-16T08:18:51;-0.37;86.76
70214;DHT22;60138;55.808;37.078;2024-01-16T08:21:17;-0.36;86.76
70214;DHT22;60138;55.808;37.078;2024-01-16T08:23:43;-0.36;86.73
70214;DHT22;60138;55.808;37.078;2024-01-16T08:26:10;-0.34;86.69
70214;DHT22;60138;55.808;37.078;2024-01-16T08:28:36;-0.36;86.66
70214;DHT22;60138;55.808;37.078;2024-01-16T08:31:01;-0.39;86.58
70214;DHT22;60138;55.808;37.078;2024-01-16T08:33:27;-0.45;86.55
70214;DHT22;60138;55.808;37.078;2024-01-16T08:35:53;-0.49;86.48
70214;DHT22;60138;55.808;37.078;2024-01-16T08:38:19;-0.52;86.42
70214;DHT22;60138;55.808;37.078;2024-01-16T08:40:45;-0.56;86.40
70214;DHT22;60138;55.808;37.078;2024-01-16T08:43:11;-0.60;86.38
70214;DHT22;60138;55.808;37.078;2024-01-16T08:45:36;-0.64;86.34
70214;DHT22;60138;55.808;37.078;2024-01-16T08:48:02;-0.70;86.32
70214;DHT22;60138;55.808;37.078;2024-01-16T08:50:28;-0.76;86.29
70214;DHT22;60138;55.808;37.078;2024-01-16T08:52:54;-0.83;86.21
70214;DHT22;60138;55.808;37.078;2024-01-16T08:55:20;-0.86;86.19
70214;DHT22;60138;55.808;37.078;2024-01-16T08:57:46;-0.88;86.17
70214;DHT22;60138;55.808;37.078;2024-01-16T09:00:12;-0.85;86.16
70214;DHT22;60138;55.808;37.078;2024-01-16T09:02:38;-0.82;86.17
70214;DHT22;60138;55.808;37.078;2024-01-16T09:05:04;-0.79;86.13
70214;DHT22;60138;55.808;37.078;2024-01-16T09:07:30;-0.76;86.14
70214;DHT22;60138;55.808;37.078;2024-01-16T09:09:56;-0.75;86.16
70214;DHT22;60138;55.808;37.078;2024-01-16T09:12:22;-0.71;86.19
70214;DHT22;60138;55.808;37.078;2024-01-16T09:14:49;-0.61;86.29
70214;DHT22;60138;55.808;37.078;2024-01-16T09:17:15;-0.44;86.38
70214;DHT22;60138;55.808;37.078;2024-01-16T09:19:41;-0.28;86.51
70214;DHT22;60138;55.808;37.078;2024-01-16T09:22:07;-0.17;86.58
70214;DHT22;60138;55.808;37.078;2024-01-16T09:24:32;-0.10;86.65
70214;DHT22;60138;55.808;37.078;2024-01-16T09:26:58;0.01;86.75
70214;DHT22;60138;55.808;37.078;2024-01-16T09:29:24;0.06;86.78
70214;DHT22;60138;55.808;37.078;2024-01-16T09:31:50;0.12;86.83
70214;DHT22;60138;55.808;37.078;2024-01-16T09:34:19;0.16;86.90
70214;DHT22;60138;55.808;37.078;2024-01-16T09:36:45;0.20;86.90
70214;DHT22;60138;55.808;37.078;2024-01-16T09:39:11;0.22;86.90
70214;DHT22;60138;55.808;37.078;2024-01-16T09:41:46;0.23;86.93
70214;DHT22;60138;55.808;37.078;2024-01-16T09:44:12;0.29;86.97
70214;DHT22;60138;55.808;37.078;2024-01-16T09:46:38;0.33;86.99
70214;DHT22;60138;55.808;37.078;2024-01-16T09:49:05;0.36;86.99
70214;DHT22;60138;55.808;37.078;2024-01-16T09:51:31;0.40;86.97
70214;DHT22;60138;55.808;37.078;2024-01-16T09:53:57;0.42;86.97
70214;DHT22;60138;55.808;37.078;2024-01-16T09:56:23;0.44;86.99
70214;DHT22;60138;55.808;37.078;2024-01-16T09:58:51;0.46;86.98
70214;DHT22;60138;55.808;37.078;2024-01-16T10:01:20;0.45;87.00
70214;DHT22;60138;55.808;37.078;2024-01-16T10:03:47;0.46;87.01
70214;DHT22;60138;55.808;37.078;2024-01-16T10:06:13;0.46;87.01
70214;DHT22;60138;55.808;37.078;2024-01-16T10:08:41;0.45;86.99
70214;DHT22;60138;55.808;37.078;2024-01-16T10:11:07;0.44;86.99
70214;DHT22;60138;55.808;37.078;2024-01-16T10:13:32;0.42;86.97
70214;DHT22;60138;55.808;37.078;2024-01-16T10:15:59;0.39;86.97
70214;DHT22;60138;55.808;37.078;2024-01-16T10:18:27;0.38;86.96
70214;DHT22;60138;55.808;37.078;2024-01-16T10:20:53;0.39;86.94
70214;DHT22;60138;55.808;37.078;2024-01-16T10:23:23;0.38;86.93
70214;DHT22;60138;55.808;37.078;2024-01-16T10:26:10;0.42;86.95
70214;DHT22;60138;55.808;37.078;2024-01-16T10:28:42;0.43;86.93
70214;DHT22;60138;55.808;37.078;2024-01-16T10:31:13;0.44;86.93
70214;DHT22;60138;55.808;37.078;2024-01-16T10:33:39;0.47;86.94
70214;DHT22;60138;55.808;37.078;2024-01-16T10:36:16;0.48;86.90
70214;DHT22;60138;55.808;37.078;2024-01-16T10:38:43;0.46;86.83
70214;DHT22;60138;55.808;37.078;2024-01-16T10:41:14;0.40;86.77
70214;DHT22;60138;55.808;37.078;2024-01-16T10:43:41;0.34;86.67
70214;DHT22;60138;55.808;37.078;2024-01-16T10:46:08;0.28;86.61
70214;DHT22;60138;55.808;37.078;2024-01-16T10:48:35;0.22;86.55
70214;DHT22;60138;55.808;37.078;2024-01-16T10:51:02;0.21;86.50
70214;DHT22;60138;55.808;37.078;2024-01-16T10:53:32;0.20;86.51
70214;DHT22;60138;55.808;37.078;2024-01-16T10:56:00;0.22;86.54
70214;DHT22;60138;55.808;37.078;2024-01-16T10:58:26;0.25;86.54
70214;DHT22;60138;55.808;37.078;2024-01-16T11:00:54;0.25;86.56
70214;DHT22;60138;55.808;37.078;2024-01-16T11:03:46;0.28;86.60
70214;DHT22;60138;55.808;37.078;2024-01-16T11:06:14;0.32;86.61
70214;DHT22;60138;55.808;37.078;2024-01-16T11:08:41;0.28;86.60
70214;DHT22;60138;55.808;37.078;2024-01-16T11:11:08;0.25;86.58
70214;DHT22;60138;55.808;37.078;2024-01-16T11:13:35;0.20;86.54
70214;DHT22;60138;55.808;37.078;2024-01-16T11:16:05;0.15;86.45
70214;DHT22;60138;55.808;37.078;2024-01-16T11:18:31;0.08;86.45
70214;DHT22;60138;55.808;37.078;2024-01-16T11:20:58;0.05;86.41
70214;DHT22;60138;55.808;37.078;2024-01-16T11:23:24;0.05;86.43
70214;DHT22;60138;55.808;37.078;2024-01-16T11:25:50;0.05;86.41
70214;DHT22;60138;55.808;37.078;2024-01-16T11:28:16;0.07;86.43
70214;DHT22;60138;55.808;37.078;2024-01-16T11:30:42;0.06;86.43
70214;DHT22;60138;55.808;37.078;2024-01-16T11:35:57;0.05;86.51
70214;DHT22;60138;55.808;37.078;2024-01-16T11:38:24;0.05;86.53
70214;DHT22;60138;55.808;37.078;2024-01-16T11:40:50;0.07;86.59
70214;DHT22;60138;55.808;37.078;2024-01-16T11:43:35;0.09;86.64
70214;DHT22;60138;55.808;37.078;2024-01-16T11:46:08;0.10;86.68
70214;DHT22;60138;55.808;37.078;2024-01-16T11:48:35;0.12;86.72
70214;DHT22;60138;55.808;37.078;2024-01-16T11:51:22;0.13;86.74
70214;DHT22;60138;55.808;37.078;2024-01-16T11:53:48;0.14;86.74
70214;DHT22;60138;55.808;37.078;2024-01-16T11:59:08;0.12;86.76
70214;DHT22;60138;55.808;37.078;2024-01-16T12:01:41;0.13;86.80
70214;DHT22;60138;55.808;37.078;2024-01-16T12:04:10;0.10;86.80
70214;DHT22;60138;55.808;37.078;2024-01-16T12:06:37;0.12;86.81
70214;DHT22;60138;55.808;37.078;2024-01-16T12:11:40;0.09;86.80
70214;DHT22;60138;55.808;37.078;2024-01-16T12:14:05;0.06;86.79
70214;DHT22;60138;55.808;37.078;2024-01-16T12:16:31;0.03;86.77
70214;DHT22;60138;55.808;37.078;2024-01-16T12:19:08;0.04;86.78
70214;DHT22;60138;55.808;37.078;2024-01-16T12:21:40;0.04;86.76
70214;DHT22;60138;55.808;37.078;2024-01-16T12:24:07;0.03;86.74
70214;DHT22;60138;55.808;37.078;2024-01-16T12:26:33;0.04;86.76
70214;DHT22;60138;55.808;37.078;2024-01-16T12:28:59;0.02;86.74
70214;DHT22;60138;55.808;37.078;2024-01-16T12:31:26;0.04;86.71
70214;DHT22;60138;55.808;37.078;2024-01-16T12:33:52;0.02;86.70
70214;DHT22;60138;55.808;37.078;2024-01-16T12:36:18;0.01;86.65
70214;DHT22;60138;55.808;37.078;2024-01-16T12:38:44;-0.03;86.63
70214;DHT22;60138;55.808;37.078;2024-01-16T12:41:11;-0.10;86.60
70214;DHT22;60138;55.808;37.078;2024-01-16T12:43:38;-0.15;86.58
70214;DHT22;60138;55.808;37.078;2024-01-16T12:46:03;-0.25;86.49
70214;DHT22;60138;55.808;37.078;2024-01-16T12:48:29;-0.37;86.41
70214;DHT22;60138;55.808;37.078;2024-01-16T12:51:00;-0.45;86.34
70214;DHT22;60138;55.808;37.078;2024-01-16T12:53:26;-0.53;86.29
70214;DHT22;60138;55.808;37.078;2024-01-16T12:55:59;-0.60;86.22
70214;DHT22;60138;55.808;37.078;2024-01-16T12:58:31;-0.67;86.16
70214;DHT22;60138;55.808;37.078;2024-01-16T13:00:57;-0.70;86.15
70214;DHT22;60138;55.808;37.078;2024-01-16T13:03:29;-0.70;86.19
70214;DHT22;60138;55.808;37.078;2024-01-16T13:06:00;-0.67;86.29
70214;DHT22;60138;55.808;37.078;2024-01-16T13:08:27;-0.62;86.34
70214;DHT22;60138;55.808;37.078;2024-01-16T13:11:09;-0.58;86.41
70214;DHT22;60138;55.808;37.078;2024-01-16T13:13:36;-0.54;86.48
70214;DHT22;60138;55.808;37.078;2024-01-16T13:16:03;-0.53;86.47
70214;DHT22;60138;55.808;37.078;2024-01-16T13:18:29;-0.51;86.58
70214;DHT22;60138;55.808;37.078;2024-01-16T13:20:57;-0.50;86.64
70214;DHT22;60138;55.808;37.078;2024-01-16T13:23:24;-0.50;86.68
70214;DHT22;60138;55.808;37.078;2024-01-16T13:25:50;-0.50;86.71
70214;DHT22;60138;55.808;37.078;2024-01-16T13:28:18;-0.49;86.74
70214;DHT22;60138;55.808;37.078;2024-01-16T13:30:46;-0.49;86.75
70214;DHT22;60138;55.808;37.078;2024-01-16T13:33:12;-0.50;86.75
70214;DHT22;60138;55.808;37.078;2024-01-16T13:35:46;-0.51;86.77
70214;DHT22;60138;55.808;37.078;2024-01-16T13:38:13;-0.52;86.79
70214;DHT22;60138;55.808;37.078;2024-01-16T13:40:39;-0.51;86.81
70214;DHT22;60138;55.808;37.078;2024-01-16T13:43:05;-0.50;86.81
70214;DHT22;60138;55.808;37.078;2024-01-16T13:45:31;-0.49;86.80
70214;DHT22;60138;55.808;37.078;2024-01-16T13:47:57;-0.52;86.80
70214;DHT22;60138;55.808;37.078;2024-01-16T13:50:23;-0.52;86.80
70214;DHT22;60138;55.808;37.078;2024-01-16T13:52:50;-0.53;86.84
70214;DHT22;60138;55.808;37.078;2024-01-16T13:55:16;-0.52;86.84
70214;DHT22;60138;55.808;37.078;2024-01-16T13:57:42;-0.52;86.86
70214;DHT22;60138;55.808;37.078;2024-01-16T14:00:10;-0.53;86.89
70214;DHT22;60138;55.808;37.078;2024-01-16T14:02:40;-0.55;86.90
70214;DHT22;60138;55.808;37.078;2024-01-16T14:05:06;-0.58;86.89
70214;DHT22;60138;55.808;37.078;2024-01-16T14:07:32;-0.61;86.90
70214;DHT22;60138;55.808;37.078;2024-01-16T14:09:58;-0.61;86.89
70214;DHT22;60138;55.808;37.078;2024-01-16T14:12:24;-0.60;86.90
70214;DHT22;60138;55.808;37.078;2024-01-16T14:14:52;-0.62;86.90
70214;DHT22;60138;55.808;37.078;2024-01-16T14:17:18;-0.64;86.92
70214;DHT22;60138;55.808;37.078;2024-01-16T14:19:44;-0.65;86.91
70214;DHT22;60138;55.808;37.078;2024-01-16T14:22:10;-0.65;86.89
70214;DHT22;60138;55.808;37.078;2024-01-16T14:24:35;-0.65;86.90
70214;DHT22;60138;55.808;37.078;2024-01-16T14:27:01;-0.66;86.91
70214;DHT22;60138;55.808;37.078;2024-01-16T14:29:28;-0.66;86.90
70214;DHT22;60138;55.808;37.078;2024-01-16T14:31:53;-0.66;86.91
70214;DHT22;60138;55.808;37.078;2024-01-16T14:34:19;-0.66;86.90
70214;DHT22;60138;55.808;37.078;2024-01-16T14:36:46;-0.66;86.88
70214;DHT22;60138;55.808;37.078;2024-01-16T14:39:12;-0.67;86.89
70214;DHT22;60138;55.808;37.078;2024-01-16T14:41:37;-0.67;86.90
70214;DHT22;60138;55.808;37.078;2024-01-16T14:44:03;-0.69;86.92
70214;DHT22;60138;55.808;37.078;2024-01-16T14:46:29;-0.69;86.90
70214;DHT22;60138;55.808;37.078;2024-01-16T14:48:55;-0.68;86.89
70214;DHT22;60138;55.808;37.078;2024-01-16T14:51:21;-0.70;86.89
70214;DHT22;60138;55.808;37.078;2024-01-16T14:53:47;-0.71;86.90
70214;DHT22;60138;55.808;37.078;2024-01-16T14:56:12;-0.73;86.90
70214;DHT22;60138;55.808;37.078;2024-01-16T14:58:38;-0.73;86.90
70214;DHT22;60138;55.808;37.078;2024-01-16T15:01:04;-0.74;86.90
70214;DHT22;60138;55.808;37.078;2024-01-16T15:03:30;-0.74;86.93
70214;DHT22;60138;55.808;37.078;2024-01-16T15:05:56;-0.73;86.90
70214;DHT22;60138;55.808;37.078;2024-01-16T15:08:22;-0.73;86.90
70214;DHT22;60138;55.808;37.078;2024-01-16T15:10:47;-0.72;86.90
70214;DHT22;60138;55.808;37.078;2024-01-16T15:13:13;-0.73;86.90
70214;DHT22;60138;55.808;37.078;2024-01-16T15:15:39;-0.73;86.91
70214;DHT22;60138;55.808;37.078;2024-01-16T15:18:07;-0.74;86.90
70214;DHT22;60138;55.808;37.078;2024-01-16T15:20:32;-0.74;86.90
70214;DHT22;60138;55.808;37.078;2024-01-16T15:22:58;-0.73;86.90
70214;DHT22;60138;55.808;37.078;2024-01-16T15:25:24;-0.75;86.91